sensor_id;sensor_type;location;lat;lon;timestamp;P1;durP1;ratioP1;P2;durP2;ratioP2
75191;SDS011;63771;52.580;9.734;2023-03-01T00:01:12;10.20;;;9.05;;
75191;SDS011;63771;52.580;9.734;2023-03-01T00:03:40;13.38;;;9.10;;
75191;SDS011;63771;52.580;9.734;2023-03-01T00:06:07;12.30;;;8.57;;
75191;SDS011;63771;52.580;9.734;2023-03-01T00:08:32;12.85;;;8.40;;
75191;SDS011;63771;52.580;9.734;2023-03-01T00:11:05;9.40;;;6.93;;
75191;SDS011;63771;52.580;9.734;2023-03-01T00:13:34;9.23;;;6.32;;
75191;SDS011;63771;52.580;9.734;2023-03-01T00:16:03;6.68;;;6.00;;
75191;SDS011;63771;52.580;9.734;2023-03-01T00:18:30;9.30;;;8.23;;
75191;SDS011;63771;52.580;9.734;2023-03-01T00:20:55;8.98;;;8.07;;
75191;SDS011;63771;52.580;9.734;2023-03-01T00:23:22;7.60;;;5.55;;
75191;SDS011;63771;52.580;9.734;2023-03-01T00:25:47;9.55;;;6.32;;
75191;SDS011;63771;52.580;9.734;2023-03-01T00:28:13;10.80;;;6.80;;
75191;SDS011;63771;52.580;9.734;2023-03-01T00:30:39;7.22;;;6.13;;
75191;SDS011;63771;52.580;9.734;2023-03-01T00:33:04;9.70;;;6.17;;
75191;SDS011;63771;52.580;9.734;2023-03-01T00:35:31;5.55;;;4.75;;
75191;SDS011;63771;52.580;9.734;2023-03-01T00:37:57;10.52;;;6.38;;
75191;SDS011;63771;52.580;9.734;2023-03-01T00:40:26;6.40;;;5.47;;
75191;SDS011;63771;52.580;9.734;2023-03-01T00:42:52;5.70;;;4.30;;
75191;SDS011;63771;52.580;9.734;2023-03-01T00:45:18;5.82;;;5.07;;
75191;SDS011;63771;52.580;9.734;2023-03-01T00:47:44;5.57;;;4.78;;
75191;SDS011;63771;52.580;9.734;2023-03-01T00:50:09;6.82;;;5.88;;
75191;SDS011;63771;52.580;9.734;2023-03-01T00:52:36;6.85;;;5.05;;
75191;SDS011;63771;52.580;9.734;2023-03-01T00:55:02;8.13;;;5.15;;
75191;SDS011;63771;52.580;9.734;2023-03-01T00:57:28;7.45;;;6.28;;
75191;SDS011;63771;52.580;9.734;2023-03-01T00:59:54;4.83;;;4.33;;
75191;SDS011;63771;52.580;9.734;2023-03-01T01:02:19;6.00;;;4.70;;
75191;SDS011;63771;52.580;9.734;2023-03-01T01:04:45;8.25;;;7.32;;
75191;SDS011;63771;52.580;9.734;2023-03-01T01:07:11;6.80;;;4.72;;
75191;SDS011;63771;52.580;9.734;2023-03-01T01:09:36;10.27;;;5.97;;
75191;SDS011;63771;52.580;9.734;2023-03-01T01:12:02;6.07;;;4.93;;
75191;SDS011;63771;52.580;9.734;2023-03-01T01:14:27;6.32;;;5.80;;
75191;SDS011;63771;52.580;9.734;2023-03-01T01:16:53;4.47;;;3.97;;
75191;SDS011;63771;52.580;9.734;2023-03-01T01:19:18;7.60;;;6.30;;
75191;SDS011;63771;52.580;9.734;2023-03-01T01:21:43;7.20;;;6.37;;
75191;SDS011;63771;52.580;9.734;2023-03-01T01:24:09;5.88;;;5.22;;
75191;SDS011;63771;52.580;9.734;2023-03-01T01:26:35;5.88;;;4.63;;
75191;SDS011;63771;52.580;9.734;2023-03-01T01:29:01;6.97;;;6.40;;
75191;SDS011;63771;52.580;9.734;2023-03-01T01:31:28;7.25;;;6.53;;
75191;SDS011;63771;52.580;9.734;2023-03-01T01:33:55;5.53;;;5.07;;
75191;SDS011;63771;52.580;9.734;2023-03-01T01:36:21;10.48;;;5.63;;
75191;SDS011;63771;52.580;9.734;2023-03-01T01:38:47;10.25;;;6.25;;
75191;SDS011;63771;52.580;9.734;2023-03-01T01:41:13;5.82;;;5.22;;
75191;SDS011;63771;52.580;9.734;2023-03-01T01:43:40;6.90;;;6.18;;
75191;SDS011;63771;52.580;9.734;2023-03-01T01:46:16;6.00;;;5.50;;
75191;SDS011;63771;52.580;9.734;2023-03-01T01:49:06;7.38;;;5.57;;
75191;SDS011;63771;52.580;9.734;2023-03-01T01:51:40;6.45;;;4.93;;
75191;SDS011;63771;52.580;9.734;2023-03-01T01:54:10;6.28;;;5.57;;
75191;SDS011;63771;52.580;9.734;2023-03-01T01:56:40;6.20;;;5.45;;
75191;SDS011;63771;52.580;9.734;2023-03-01T01:59:09;6.45;;;5.88;;
75191;SDS011;63771;52.580;9.734;2023-03-01T02:01:35;6.35;;;4.90;;
75191;SDS011;63771;52.580;9.734;2023-03-01T02:04:00;8.53;;;6.47;;
75191;SDS011;63771;52.580;9.734;2023-03-01T02:06:27;6.53;;;5.70;;
75191;SDS011;63771;52.580;9.734;2023-03-01T02:09:00;6.40;;;5.63;;
75191;SDS011;63771;52.580;9.734;2023-03-01T02:11:30;8.55;;;5.90;;
75191;SDS011;63771;52.580;9.734;2023-03-01T02:13:56;10.32;;;6.05;;
75191;SDS011;63771;52.580;9.734;2023-03-01T02:16:21;6.93;;;5.57;;
75191;SDS011;63771;52.580;9.734;2023-03-01T02:18:47;5.90;;;5.22;;
75191;SDS011;63771;52.580;9.734;2023-03-01T02:23:48;8.00;;;6.32;;
75191;SDS011;63771;52.580;9.734;2023-03-01T02:28:49;7.88;;;7.10;;
75191;SDS011;63771;52.580;9.734;2023-03-01T02:31:16;7.55;;;6.38;;
75191;SDS011;63771;52.580;9.734;2023-03-01T02:34:03;8.90;;;6.32;;
75191;SDS011;63771;52.580;9.734;2023-03-01T02:36:40;6.18;;;5.57;;
75191;SDS011;63771;52.580;9.734;2023-03-01T02:39:12;7.65;;;5.30;;
75191;SDS011;63771;52.580;9.734;2023-03-01T02:41:42;6.88;;;5.78;;
75191;SDS011;63771;52.580;9.734;2023-03-01T02:44:11;8.35;;;5.90;;
75191;SDS011;63771;52.580;9.734;2023-03-01T02:46:44;7.78;;;6.95;;
75191;SDS011;63771;52.580;9.734;2023-03-01T02:49:25;6.32;;;5.75;;
75191;SDS011;63771;52.580;9.734;2023-03-01T02:57:23;7.32;;;5.43;;
75191;SDS011;63771;52.580;9.734;2023-03-01T02:59:52;6.70;;;6.10;;
75191;SDS011;63771;52.580;9.734;2023-03-01T03:02:29;5.80;;;5.07;;
75191;SDS011;63771;52.580;9.734;2023-03-01T03:05:02;7.05;;;5.32;;
75191;SDS011;63771;52.580;9.734;2023-03-01T03:07:33;7.60;;;5.35;;
75191;SDS011;63771;52.580;9.734;2023-03-01T03:10:00;6.32;;;5.82;;
75191;SDS011;63771;52.580;9.734;2023-03-01T03:12:26;6.68;;;5.35;;
75191;SDS011;63771;52.580;9.734;2023-03-01T03:14:52;6.53;;;5.60;;
75191;SDS011;63771;52.580;9.734;2023-03-01T03:17:17;6.22;;;5.18;;
75191;SDS011;63771;52.580;9.734;2023-03-01T03:19:42;4.20;;;3.63;;
75191;SDS011;63771;52.580;9.734;2023-03-01T03:22:10;8.05;;;5.30;;
75191;SDS011;63771;52.580;9.734;2023-03-01T03:24:39;4.20;;;3.80;;
75191;SDS011;63771;52.580;9.734;2023-03-01T03:27:04;5.90;;;5.27;;
75191;SDS011;63771;52.580;9.734;2023-03-01T03:29:31;6.47;;;6.05;;
75191;SDS011;63771;52.580;9.734;2023-03-01T03:31:56;5.17;;;4.67;;
75191;SDS011;63771;52.580;9.734;2023-03-01T03:34:21;4.90;;;4.43;;
75191;SDS011;63771;52.580;9.734;2023-03-01T03:36:47;5.97;;;4.70;;
75191;SDS011;63771;52.580;9.734;2023-03-01T03:39:12;5.68;;;5.18;;
75191;SDS011;63771;52.580;9.734;2023-03-01T03:41:37;4.68;;;4.32;;
75191;SDS011;63771;52.580;9.734;2023-03-01T03:44:03;4.67;;;4.27;;
75191;SDS011;63771;52.580;9.734;2023-03-01T03:46:28;6.00;;;5.50;;
75191;SDS011;63771;52.580;9.734;2023-03-01T03:48:54;6.10;;;5.70;;
75191;SDS011;63771;52.580;9.734;2023-03-01T03:51:19;4.67;;;4.37;;
75191;SDS011;63771;52.580;9.734;2023-03-01T03:53:45;5.20;;;4.45;;
75191;SDS011;63771;52.580;9.734;2023-03-01T03:56:11;5.05;;;4.45;;
75191;SDS011;63771;52.580;9.734;2023-03-01T03:58:36;5.35;;;4.85;;
75191;SDS011;63771;52.580;9.734;2023-03-01T04:01:02;5.63;;;4.22;;
75191;SDS011;63771;52.580;9.734;2023-03-01T04:03:28;5.05;;;4.07;;
75191;SDS011;63771;52.580;9.734;2023-03-01T04:05:56;4.55;;;4.20;;
75191;SDS011;63771;52.580;9.734;2023-03-01T04:08:22;5.15;;;4.65;;
75191;SDS011;63771;52.580;9.734;2023-03-01T04:10:49;4.90;;;4.55;;
75191;SDS011;63771;52.580;9.734;2023-03-01T04:13:19;9.25;;;4.53;;
75191;SDS011;63771;52.580;9.734;2023-03-01T04:18:12;4.40;;;4.00;;
75191;SDS011;63771;52.580;9.734;2023-03-01T04:20:38;4.75;;;4.22;;
75191;SDS011;63771;52.580;9.734;2023-03-01T04:23:07;7.20;;;5.10;;
75191;SDS011;63771;52.580;9.734;2023-03-01T04:28:25;7.75;;;5.25;;
75191;SDS011;63771;52.580;9.734;2023-03-01T04:30:53;4.43;;;4.03;;
75191;SDS011;63771;52.580;9.734;2023-03-01T04:33:20;5.55;;;5.03;;
75191;SDS011;63771;52.580;9.734;2023-03-01T04:35:46;5.43;;;5.00;;
75191;SDS011;63771;52.580;9.734;2023-03-01T04:38:14;6.82;;;6.07;;
75191;SDS011;63771;52.580;9.734;2023-03-01T04:40:40;5.88;;;5.03;;
75191;SDS011;63771;52.580;9.734;2023-03-01T04:43:08;5.60;;;5.20;;
75191;SDS011;63771;52.580;9.734;2023-03-01T04:45:34;6.88;;;5.32;;
75191;SDS011;63771;52.580;9.734;2023-03-01T04:48:00;7.30;;;6.22;;
75191;SDS011;63771;52.580;9.734;2023-03-01T04:50:25;8.38;;;6.78;;
75191;SDS011;63771;52.580;9.734;2023-03-01T04:52:51;5.63;;;5.18;;
75191;SDS011;63771;52.580;9.734;2023-03-01T04:55:17;6.25;;;5.75;;
75191;SDS011;63771;52.580;9.734;2023-03-01T04:57:43;9.82;;;9.05;;
75191;SDS011;63771;52.580;9.734;2023-03-01T05:00:10;6.13;;;5.53;;
75191;SDS011;63771;52.580;9.734;2023-03-01T05:02:45;8.50;;;6.13;;
75191;SDS011;63771;52.580;9.734;2023-03-01T05:05:18;5.90;;;5.40;;
75191;SDS011;63771;52.580;9.734;2023-03-01T05:07:45;7.00;;;5.70;;
75191;SDS011;63771;52.580;9.734;2023-03-01T05:10:10;6.73;;;5.03;;
75191;SDS011;63771;52.580;9.734;2023-03-01T05:12:36;6.70;;;6.17;;
75191;SDS011;63771;52.580;9.734;2023-03-01T05:15:02;8.20;;;6.15;;
75191;SDS011;63771;52.580;9.734;2023-03-01T05:17:31;6.75;;;6.15;;
75191;SDS011;63771;52.580;9.734;2023-03-01T05:19:58;6.60;;;5.85;;
75191;SDS011;63771;52.580;9.734;2023-03-01T05:22:24;5.60;;;5.10;;
75191;SDS011;63771;52.580;9.734;2023-03-01T05:24:50;5.95;;;5.38;;
75191;SDS011;63771;52.580;9.734;2023-03-01T05:27:15;8.03;;;5.33;;
75191;SDS011;63771;52.580;9.734;2023-03-01T05:29:41;5.77;;;5.20;;
75191;SDS011;63771;52.580;9.734;2023-03-01T05:32:06;8.27;;;5.13;;
75191;SDS011;63771;52.580;9.734;2023-03-01T05:34:32;7.40;;;6.17;;
75191;SDS011;63771;52.580;9.734;2023-03-01T05:37:00;5.55;;;5.13;;
75191;SDS011;63771;52.580;9.734;2023-03-01T05:39:27;7.35;;;5.90;;
75191;SDS011;63771;52.580;9.734;2023-03-01T05:41:54;7.72;;;6.22;;
75191;SDS011;63771;52.580;9.734;2023-03-01T05:44:20;7.30;;;6.55;;
75191;SDS011;63771;52.580;9.734;2023-03-01T05:46:46;5.35;;;4.68;;
75191;SDS011;63771;52.580;9.734;2023-03-01T05:49:11;6.20;;;4.93;;
75191;SDS011;63771;52.580;9.734;2023-03-01T05:51:38;6.35;;;5.75;;
75191;SDS011;63771;52.580;9.734;2023-03-01T05:54:04;7.32;;;5.15;;
75191;SDS011;63771;52.580;9.734;2023-03-01T05:56:32;6.97;;;5.07;;
75191;SDS011;63771;52.580;9.734;2023-03-01T05:58:59;6.32;;;5.72;;
75191;SDS011;63771;52.580;9.734;2023-03-01T06:01:24;6.07;;;5.47;;
75191;SDS011;63771;52.580;9.734;2023-03-01T06:03:49;7.17;;;6.57;;
75191;SDS011;63771;52.580;9.734;2023-03-01T06:06:14;5.77;;;4.93;;
75191;SDS011;63771;52.580;9.734;2023-03-01T06:08:40;6.97;;;6.00;;
75191;SDS011;63771;52.580;9.734;2023-03-01T06:11:05;10.37;;;9.00;;
75191;SDS011;63771;52.580;9.734;2023-03-01T06:13:32;6.28;;;5.32;;
75191;SDS011;63771;52.580;9.734;2023-03-01T06:15:57;5.55;;;4.63;;
75191;SDS011;63771;52.580;9.734;2023-03-01T06:18:22;5.27;;;4.60;;
75191;SDS011;63771;52.580;9.734;2023-03-01T06:20:54;5.07;;;4.60;;
75191;SDS011;63771;52.580;9.734;2023-03-01T06:23:21;6.32;;;5.93;;
75191;SDS011;63771;52.580;9.734;2023-03-01T06:25:47;8.27;;;7.57;;
75191;SDS011;63771;52.580;9.734;2023-03-01T06:28:12;7.07;;;6.23;;
75191;SDS011;63771;52.580;9.734;2023-03-01T06:30:38;5.27;;;4.77;;
75191;SDS011;63771;52.580;9.734;2023-03-01T06:33:03;5.93;;;4.53;;
75191;SDS011;63771;52.580;9.734;2023-03-01T06:35:28;7.28;;;5.65;;
75191;SDS011;63771;52.580;9.734;2023-03-01T06:37:55;7.38;;;6.32;;
75191;SDS011;63771;52.580;9.734;2023-03-01T06:40:20;7.53;;;6.68;;
75191;SDS011;63771;52.580;9.734;2023-03-01T06:42:49;6.43;;;5.68;;
75191;SDS011;63771;52.580;9.734;2023-03-01T06:45:16;9.75;;;6.45;;
75191;SDS011;63771;52.580;9.734;2023-03-01T06:47:43;9.85;;;6.32;;
75191;SDS011;63771;52.580;9.734;2023-03-01T06:50:08;6.03;;;5.63;;
75191;SDS011;63771;52.580;9.734;2023-03-01T06:52:34;7.28;;;6.63;;
75191;SDS011;63771;52.580;9.734;2023-03-01T06:54:59;6.30;;;5.72;;
75191;SDS011;63771;52.580;9.734;2023-03-01T06:57:25;14.43;;;7.95;;
75191;SDS011;63771;52.580;9.734;2023-03-01T06:59:51;8.30;;;6.05;;
75191;SDS011;63771;52.580;9.734;2023-03-01T07:02:16;12.57;;;5.83;;
75191;SDS011;63771;52.580;9.734;2023-03-01T07:04:42;6.72;;;6.13;;
75191;SDS011;63771;52.580;9.734;2023-03-01T07:07:07;7.10;;;5.80;;
75191;SDS011;63771;52.580;9.734;2023-03-01T07:09:33;6.65;;;5.97;;
75191;SDS011;63771;52.580;9.734;2023-03-01T07:11:58;7.27;;;6.67;;
75191;SDS011;63771;52.580;9.734;2023-03-01T07:14:24;10.23;;;6.93;;
75191;SDS011;63771;52.580;9.734;2023-03-01T07:16:50;12.48;;;6.25;;
75191;SDS011;63771;52.580;9.734;2023-03-01T07:19:16;10.80;;;10.00;;
75191;SDS011;63771;52.580;9.734;2023-03-01T07:21:43;10.00;;;6.40;;
75191;SDS011;63771;52.580;9.734;2023-03-01T07:24:08;15.73;;;9.23;;
75191;SDS011;63771;52.580;9.734;2023-03-01T07:26:34;14.48;;;9.32;;
75191;SDS011;63771;52.580;9.734;2023-03-01T07:29:00;22.13;;;11.20;;
75191;SDS011;63771;52.580;9.734;2023-03-01T07:31:26;16.23;;;10.50;;
75191;SDS011;63771;52.580;9.734;2023-03-01T07:33:53;19.55;;;11.07;;
75191;SDS011;63771;52.580;9.734;2023-03-01T07:36:19;14.40;;;10.35;;
75191;SDS011;63771;52.580;9.734;2023-03-01T07:38:44;15.10;;;10.43;;
75191;SDS011;63771;52.580;9.734;2023-03-01T07:41:10;13.13;;;9.03;;
75191;SDS011;63771;52.580;9.734;2023-03-01T07:43:35;8.73;;;7.85;;
75191;SDS011;63771;52.580;9.734;2023-03-01T07:46:01;12.13;;;9.02;;
75191;SDS011;63771;52.580;9.734;2023-03-01T07:48:27;12.98;;;8.50;;
75191;SDS011;63771;52.580;9.734;2023-03-01T07:50:53;10.57;;;9.55;;
75191;SDS011;63771;52.580;9.734;2023-03-01T07:53:18;15.23;;;9.33;;
75191;SDS011;63771;52.580;9.734;2023-03-01T07:55:44;10.80;;;9.13;;
75191;SDS011;63771;52.580;9.734;2023-03-01T07:58:09;12.60;;;9.67;;
75191;SDS011;63771;52.580;9.734;2023-03-01T08:00:34;12.68;;;11.38;;
75191;SDS011;63771;52.580;9.734;2023-03-01T08:03:00;11.43;;;8.73;;
75191;SDS011;63771;52.580;9.734;2023-03-01T08:05:26;12.15;;;8.60;;
75191;SDS011;63771;52.580;9.734;2023-03-01T08:07:51;9.07;;;6.93;;
75191;SDS011;63771;52.580;9.734;2023-03-01T08:10:17;11.38;;;7.30;;
75191;SDS011;63771;52.580;9.734;2023-03-01T08:12:42;6.75;;;6.10;;
75191;SDS011;63771;52.580;9.734;2023-03-01T08:15:08;6.90;;;6.28;;
75191;SDS011;63771;52.580;9.734;2023-03-01T08:17:34;10.52;;;6.93;;
75191;SDS011;63771;52.580;9.734;2023-03-01T08:19:59;7.20;;;6.23;;
75191;SDS011;63771;52.580;9.734;2023-03-01T08:22:24;7.67;;;6.47;;
75191;SDS011;63771;52.580;9.734;2023-03-01T08:24:50;6.30;;;4.60;;
75191;SDS011;63771;52.580;9.734;2023-03-01T08:27:16;6.32;;;5.22;;
75191;SDS011;63771;52.580;9.734;2023-03-01T08:29:41;9.48;;;5.75;;
75191;SDS011;63771;52.580;9.734;2023-03-01T08:32:07;6.57;;;4.70;;
75191;SDS011;63771;52.580;9.734;2023-03-01T08:34:32;7.73;;;7.03;;
75191;SDS011;63771;52.580;9.734;2023-03-01T08:37:00;10.40;;;6.20;;
75191;SDS011;63771;52.580;9.734;2023-03-01T08:39:26;8.18;;;7.45;;
75191;SDS011;63771;52.580;9.734;2023-03-01T08:41:51;6.35;;;5.75;;
75191;SDS011;63771;52.580;9.734;2023-03-01T08:44:17;6.10;;;5.50;;
75191;SDS011;63771;52.580;9.734;2023-03-01T08:46:43;7.25;;;6.50;;
75191;SDS011;63771;52.580;9.734;2023-03-01T08:49:14;5.40;;;4.90;;
75191;SDS011;63771;52.580;9.734;2023-03-01T08:51:41;7.15;;;6.32;;
75191;SDS011;63771;52.580;9.734;2023-03-01T08:54:11;8.30;;;5.80;;
75191;SDS011;63771;52.580;9.734;2023-03-01T08:56:39;7.40;;;5.50;;
75191;SDS011;63771;52.580;9.734;2023-03-01T08:59:05;5.90;;;5.38;;
75191;SDS011;63771;52.580;9.734;2023-03-01T09:01:31;6.03;;;5.60;;
75191;SDS011;63771;52.580;9.734;2023-03-01T09:03:56;6.10;;;5.37;;
75191;SDS011;63771;52.580;9.734;2023-03-01T09:06:22;6.13;;;5.03;;
75191;SDS011;63771;52.580;9.734;2023-03-01T09:08:48;5.43;;;4.75;;
75191;SDS011;63771;52.580;9.734;2023-03-01T09:11:16;11.45;;;5.53;;
75191;SDS011;63771;52.580;9.734;2023-03-01T09:13:44;4.57;;;4.20;;
75191;SDS011;63771;52.580;9.734;2023-03-01T09:16:11;5.95;;;5.28;;
75191;SDS011;63771;52.580;9.734;2023-03-01T09:18:38;7.00;;;5.43;;
75191;SDS011;63771;52.580;9.734;2023-03-01T09:21:11;6.65;;;6.05;;
75191;SDS011;63771;52.580;9.734;2023-03-01T09:23:41;6.50;;;5.22;;
75191;SDS011;63771;52.580;9.734;2023-03-01T09:26:09;5.50;;;4.68;;
75191;SDS011;63771;52.580;9.734;2023-03-01T09:28:36;6.75;;;5.07;;
75191;SDS011;63771;52.580;9.734;2023-03-01T09:31:02;4.93;;;4.50;;
75191;SDS011;63771;52.580;9.734;2023-03-01T09:33:29;5.47;;;4.72;;
75191;SDS011;63771;52.580;9.734;2023-03-01T09:35:57;4.75;;;4.35;;
75191;SDS011;63771;52.580;9.734;2023-03-01T09:38:23;8.02;;;4.60;;
75191;SDS011;63771;52.580;9.734;2023-03-01T09:40:48;4.70;;;4.30;;
75191;SDS011;63771;52.580;9.734;2023-03-01T09:46:22;4.03;;;3.63;;
75191;SDS011;63771;52.580;9.734;2023-03-01T09:48:51;5.75;;;4.05;;
75191;SDS011;63771;52.580;9.734;2023-03-01T09:51:31;4.43;;;3.90;;
75191;SDS011;63771;52.580;9.734;2023-03-01T09:53:58;5.03;;;3.50;;
75191;SDS011;63771;52.580;9.734;2023-03-01T10:02:20;4.45;;;3.17;;
75191;SDS011;63771;52.580;9.734;2023-03-01T10:04:52;2.85;;;2.38;;
75191;SDS011;63771;52.580;9.734;2023-03-01T10:07:21;2.90;;;2.70;;
75191;SDS011;63771;52.580;9.734;2023-03-01T10:09:48;2.75;;;2.55;;
75191;SDS011;63771;52.580;9.734;2023-03-01T10:12:24;6.60;;;3.00;;
75191;SDS011;63771;52.580;9.734;2023-03-01T10:20:46;4.72;;;2.90;;
75191;SDS011;63771;52.580;9.734;2023-03-01T10:23:17;3.60;;;3.28;;
75191;SDS011;63771;52.580;9.734;2023-03-01T10:25:55;3.80;;;2.87;;
75191;SDS011;63771;52.580;9.734;2023-03-01T10:31:44;3.65;;;2.85;;
75191;SDS011;63771;52.580;9.734;2023-03-01T10:36:47;2.65;;;2.30;;
75191;SDS011;63771;52.580;9.734;2023-03-01T10:39:15;2.95;;;2.75;;
75191;SDS011;63771;52.580;9.734;2023-03-01T10:42:01;3.88;;;2.50;;
75191;SDS011;63771;52.580;9.734;2023-03-01T10:44:36;2.80;;;2.58;;
75191;SDS011;63771;52.580;9.734;2023-03-01T10:49:55;5.07;;;3.22;;
75191;SDS011;63771;52.580;9.734;2023-03-01T10:52:26;3.92;;;2.70;;
75191;SDS011;63771;52.580;9.734;2023-03-01T10:54:58;4.07;;;2.95;;
75191;SDS011;63771;52.580;9.734;2023-03-01T10:57:49;3.90;;;3.08;;
75191;SDS011;63771;52.580;9.734;2023-03-01T11:00:19;3.85;;;3.55;;
75191;SDS011;63771;52.580;9.734;2023-03-01T11:03:30;3.33;;;3.13;;
75191;SDS011;63771;52.580;9.734;2023-03-01T11:05:49;3.55;;;2.85;;
75191;SDS011;63771;52.580;9.734;2023-03-01T11:08:28;3.47;;;2.95;;
75191;SDS011;63771;52.580;9.734;2023-03-01T11:13:31;2.92;;;2.70;;
75191;SDS011;63771;52.580;9.734;2023-03-01T11:16:00;4.35;;;3.80;;
75191;SDS011;63771;52.580;9.734;2023-03-01T11:18:27;3.00;;;2.55;;
75191;SDS011;63771;52.580;9.734;2023-03-01T11:20:55;4.45;;;3.30;;
75191;SDS011;63771;52.580;9.734;2023-03-01T11:23:23;4.05;;;2.65;;
75191;SDS011;63771;52.580;9.734;2023-03-01T11:26:00;2.88;;;2.58;;
75191;SDS011;63771;52.580;9.734;2023-03-01T11:28:30;3.88;;;3.10;;
75191;SDS011;63771;52.580;9.734;2023-03-01T11:30:57;5.32;;;2.33;;
75191;SDS011;63771;52.580;9.734;2023-03-01T11:33:37;3.58;;;3.28;;
75191;SDS011;63771;52.580;9.734;2023-03-01T11:39:16;3.08;;;2.78;;
75191;SDS011;63771;52.580;9.734;2023-03-01T11:41:48;2.63;;;2.42;;
75191;SDS011;63771;52.580;9.734;2023-03-01T11:44:19;2.97;;;2.58;;
75191;SDS011;63771;52.580;9.734;2023-03-01T11:47:12;4.65;;;2.95;;
75191;SDS011;63771;52.580;9.734;2023-03-01T11:57:53;2.22;;;2.03;;
75191;SDS011;63771;52.580;9.734;2023-03-01T12:03:27;3.50;;;3.20;;
75191;SDS011;63771;52.580;9.734;2023-03-01T12:22:35;2.72;;;2.42;;
75191;SDS011;63771;52.580;9.734;2023-03-01T12:36:20;2.88;;;2.60;;
75191;SDS011;63771;52.580;9.734;2023-03-01T12:38:59;2.13;;;2.03;;
75191;SDS011;63771;52.580;9.734;2023-03-01T12:41:32;3.13;;;2.13;;
75191;SDS011;63771;52.580;9.734;2023-03-01T12:44:29;2.80;;;2.05;;
75191;SDS011;63771;52.580;9.734;2023-03-01T12:47:26;3.78;;;2.00;;
75191;SDS011;63771;52.580;9.734;2023-03-01T12:50:24;2.13;;;2.00;;
75191;SDS011;63771;52.580;9.734;2023-03-01T12:52:57;5.13;;;2.65;;
75191;SDS011;63771;52.580;9.734;2023-03-01T12:55:28;2.55;;;2.35;;
75191;SDS011;63771;52.580;9.734;2023-03-01T13:00:28;2.10;;;2.00;;
75191;SDS011;63771;52.580;9.734;2023-03-01T13:05:40;4.03;;;2.13;;
75191;SDS011;63771;52.580;9.734;2023-03-01T13:08:28;2.22;;;1.80;;
75191;SDS011;63771;52.580;9.734;2023-03-01T13:11:02;1.92;;;1.83;;
75191;SDS011;63771;52.580;9.734;2023-03-01T13:13:30;2.88;;;1.95;;
75191;SDS011;63771;52.580;9.734;2023-03-01T13:15:55;3.42;;;1.95;;
75191;SDS011;63771;52.580;9.734;2023-03-01T13:20:52;2.67;;;2.47;;
75191;SDS011;63771;52.580;9.734;2023-03-01T13:30:56;2.08;;;1.98;;
75191;SDS011;63771;52.580;9.734;2023-03-01T13:35:53;1.75;;;1.65;;
75191;SDS011;63771;52.580;9.734;2023-03-01T13:39:25;1.45;;;1.38;;
75191;SDS011;63771;52.580;9.734;2023-03-01T13:44:24;1.70;;;1.60;;
75191;SDS011;63771;52.580;9.734;2023-03-01T13:49:42;1.80;;;1.70;;
75191;SDS011;63771;52.580;9.734;2023-03-01T13:52:54;2.53;;;2.00;;
75191;SDS011;63771;52.580;9.734;2023-03-01T13:55:03;2.70;;;1.83;;
75191;SDS011;63771;52.580;9.734;2023-03-01T13:57:35;3.35;;;1.80;;
75191;SDS011;63771;52.580;9.734;2023-03-01T14:00:04;2.50;;;1.92;;
75191;SDS011;63771;52.580;9.734;2023-03-01T14:02:30;2.42;;;1.88;;
75191;SDS011;63771;52.580;9.734;2023-03-01T14:05:00;1.52;;;1.40;;
75191;SDS011;63771;52.580;9.734;2023-03-01T14:07:26;4.43;;;2.58;;
75191;SDS011;63771;52.580;9.734;2023-03-01T14:09:56;1.75;;;1.65;;
75191;SDS011;63771;52.580;9.734;2023-03-01T14:18:08;1.80;;;1.70;;
75191;SDS011;63771;52.580;9.734;2023-03-01T14:20:40;3.05;;;1.80;;
75191;SDS011;63771;52.580;9.734;2023-03-01T14:23:11;2.78;;;1.92;;
75191;SDS011;63771;52.580;9.734;2023-03-01T14:25:38;2.53;;;2.33;;
75191;SDS011;63771;52.580;9.734;2023-03-01T14:28:19;2.42;;;2.17;;
75191;SDS011;63771;52.580;9.734;2023-03-01T14:30:52;1.77;;;1.60;;
75191;SDS011;63771;52.580;9.734;2023-03-01T14:38:30;1.35;;;1.25;;
75191;SDS011;63771;52.580;9.734;2023-03-01T14:41:00;1.88;;;1.40;;
75191;SDS011;63771;52.580;9.734;2023-03-01T14:43:28;2.72;;;1.45;;
75191;SDS011;63771;52.580;9.734;2023-03-01T14:45:55;1.05;;;1.05;;
75191;SDS011;63771;52.580;9.734;2023-03-01T14:48:21;1.30;;;1.20;;
75191;SDS011;63771;52.580;9.734;2023-03-01T14:50:47;1.25;;;1.23;;
75191;SDS011;63771;52.580;9.734;2023-03-01T14:55:46;1.55;;;1.38;;
75191;SDS011;63771;52.580;9.734;2023-03-01T14:58:14;1.55;;;1.45;;
75191;SDS011;63771;52.580;9.734;2023-03-01T15:00:52;1.98;;;1.83;;
75191;SDS011;63771;52.580;9.734;2023-03-01T15:03:41;1.52;;;1.33;;
75191;SDS011;63771;52.580;9.734;2023-03-01T15:06:08;1.40;;;1.40;;
75191;SDS011;63771;52.580;9.734;2023-03-01T15:08:35;1.77;;;1.50;;
75191;SDS011;63771;52.580;9.734;2023-03-01T15:11:15;1.70;;;1.60;;
75191;SDS011;63771;52.580;9.734;2023-03-01T15:13:47;1.95;;;1.63;;
75191;SDS011;63771;52.580;9.734;2023-03-01T15:16:13;1.85;;;1.45;;
75191;SDS011;63771;52.580;9.734;2023-03-01T15:18:48;0.98;;;0.98;;
75191;SDS011;63771;52.580;9.734;2023-03-01T15:23:47;2.20;;;1.33;;
75191;SDS011;63771;52.580;9.734;2023-03-01T15:26:35;1.92;;;1.85;;
75191;SDS011;63771;52.580;9.734;2023-03-01T15:29:19;1.05;;;1.00;;
75191;SDS011;63771;52.580;9.734;2023-03-01T15:34:25;2.67;;;1.13;;
75191;SDS011;63771;52.580;9.734;2023-03-01T15:36:57;1.10;;;1.05;;
75191;SDS011;63771;52.580;9.734;2023-03-01T15:39:36;1.63;;;1.27;;
75191;SDS011;63771;52.580;9.734;2023-03-01T15:45:06;1.45;;;1.40;;
75191;SDS011;63771;52.580;9.734;2023-03-01T15:47:40;1.58;;;1.40;;
75191;SDS011;63771;52.580;9.734;2023-03-01T15:50:16;1.60;;;1.50;;
75191;SDS011;63771;52.580;9.734;2023-03-01T15:52:45;1.50;;;1.35;;
75191;SDS011;63771;52.580;9.734;2023-03-01T15:55:15;1.40;;;1.30;;
75191;SDS011;63771;52.580;9.734;2023-03-01T15:57:43;2.45;;;1.40;;
75191;SDS011;63771;52.580;9.734;2023-03-01T16:00:11;1.70;;;1.60;;
75191;SDS011;63771;52.580;9.734;2023-03-01T16:02:38;2.42;;;1.70;;
75191;SDS011;63771;52.580;9.734;2023-03-01T16:05:04;2.15;;;1.98;;
75191;SDS011;63771;52.580;9.734;2023-03-01T16:07:30;1.63;;;1.45;;
75191;SDS011;63771;52.580;9.734;2023-03-01T16:09:56;1.23;;;1.23;;
75191;SDS011;63771;52.580;9.734;2023-03-01T16:12:22;1.40;;;1.30;;
75191;SDS011;63771;52.580;9.734;2023-03-01T16:14:49;1.50;;;1.40;;
75191;SDS011;63771;52.580;9.734;2023-03-01T16:17:14;2.28;;;1.83;;
75191;SDS011;63771;52.580;9.734;2023-03-01T16:19:40;2.00;;;1.70;;
75191;SDS011;63771;52.580;9.734;2023-03-01T16:22:06;2.60;;;2.00;;
75191;SDS011;63771;52.580;9.734;2023-03-01T16:24:31;1.90;;;1.80;;
75191;SDS011;63771;52.580;9.734;2023-03-01T16:26:57;1.92;;;1.83;;
75191;SDS011;63771;52.580;9.734;2023-03-01T16:29:22;1.83;;;1.67;;
75191;SDS011;63771;52.580;9.734;2023-03-01T16:31:48;2.35;;;1.38;;
75191;SDS011;63771;52.580;9.734;2023-03-01T16:34:13;2.00;;;1.60;;
75191;SDS011;63771;52.580;9.734;2023-03-01T16:36:38;1.47;;;1.37;;
75191;SDS011;63771;52.580;9.734;2023-03-01T16:39:04;2.80;;;1.70;;
75191;SDS011;63771;52.580;9.734;2023-03-01T16:41:29;1.70;;;1.60;;
75191;SDS011;63771;52.580;9.734;2023-03-01T16:43:55;3.40;;;1.75;;
75191;SDS011;63771;52.580;9.734;2023-03-01T16:46:27;2.22;;;1.50;;
75191;SDS011;63771;52.580;9.734;2023-03-01T16:48:54;4.05;;;1.63;;
75191;SDS011;63771;52.580;9.734;2023-03-01T16:51:20;3.47;;;2.60;;
75191;SDS011;63771;52.580;9.734;2023-03-01T16:53:46;6.22;;;2.88;;
75191;SDS011;63771;52.580;9.734;2023-03-01T16:56:13;2.55;;;2.10;;
75191;SDS011;63771;52.580;9.734;2023-03-01T16:58:39;2.70;;;2.10;;
75191;SDS011;63771;52.580;9.734;2023-03-01T17:01:12;5.90;;;1.92;;
75191;SDS011;63771;52.580;9.734;2023-03-01T17:03:40;2.83;;;2.72;;